• Join FlightAware (Why Join?)
  • Login
  • US Flag 
12:30PM EDT


 

Airport Tracker/Info


-or-


 

Live Flight TrackerFlight Track Log ✈ CHQ5098 ✈ 20-Apr-2013 ✈ KORD - KGRB

Flight Track Log - Related Links

Times and Time Zones

All times are in EDT time to prevent confusion due to time zone crossing. See the CHQ5098 flight status page for this flight to view local times or setup timezone preferences in your user account.

Time Position Orientation Groundspeed Altitude Reporting Facility
EDT Latitude Longitude Course Direction KTS MPH feet Rate Location/Type
07:25PM 42.0167 -87.8667 352° North 160 184 2,300  Level Chicago TRACON
07:26PM 42.1092 -87.7928 31° Northeast 250 288 5,000 900 Climbing Chicago Center
07:27PM 42.1986 -87.9743 340° North  Level FlightAware Approximate
07:27PM 42.1781 -87.7956 358° North 250 288 5,100  Level Chicago Center
07:28PM 42.2764 -87.9983 350° North  Level FlightAware Approximate
07:28PM 42.2481 -87.7950 360° North 253 291 6,300  Level Chicago Center
07:29PM 42.3548 -88.0191 340° North  Level FlightAware Approximate
07:30PM 42.4309 -88.0528 352° North  Level FlightAware Approximate
07:30PM 42.3317 -87.7950 360° North 254 292 10,000  Level Chicago Center
07:31PM 42.4058 -87.7936 North 264 304 12,500 2,460 Climbing Chicago Center
07:32PM 42.4803 -87.7900 North 268 308 15,100 1,920 Climbing Chicago Center
07:33PM 42.5586 -87.7883 North 278 320 16,500 1,020 Climbing Chicago Center
07:34PM 42.6469 -87.8031 353° North 313 360 17,300 720 Climbing Chicago Center
07:35PM 42.7422 -87.8186 353° North 340 391 18,000 300 Climbing Chicago Center
07:36PM 42.8592 -87.8389 353° North 362 417 18,000  Level Chicago Center
07:37PM 42.9581 -87.8558 353° North 360 414 18,000  Level Chicago Center
07:38PM 43.0556 -87.8736 352° North 356 410 18,000  Level Chicago Center
07:39PM 43.1547 -87.8903 353° North 357 411 18,000  Level Chicago Center
07:40PM 43.2542 -87.9086 352° North 361 415 18,000  Level Chicago Center
07:41PM 43.3531 -87.9244 353° North 360 414 18,000 -660 Level Chicago Center
07:42PM 43.4514 -87.9425 352° North 359 413 16,700 -1,800 Descending Chicago Center
07:43PM 43.5644 -87.9625 353° North 353 406 14,400 -2,160 Descending Chicago Center
07:44PM 43.6589 -87.9806 352° North 347 399 12,300 -2,040 Descending Chicago Center
07:44PM 43.7033 -87.9878 353° North 338 389 11,200 -1,500 Descending Minneapolis Center
07:45PM 43.7942 -88.0011 354° North 330 380 9,900 -660 Descending Minneapolis Center
07:46PM 43.8819 -88.0175 352° North 322 371 9,900  Level Minneapolis Center
07:47PM 43.9567 -88.0353 350° North 324 373 9,900  Level Minneapolis Center
07:48PM 44.0753 -88.0625 351° North 324 373 9,900 -360 Level Minneapolis Center
07:50PM 44.1483 -88.0758 353° North 264 304 9,200 -2,040 Descending Minneapolis Center
07:51PM 44.2142 -88.0889 352° North 242 278 5,800 -2,760 Descending Minneapolis Center
07:52PM 44.2811 -88.1092 348° North 244 281 3,600 -1,560 Descending Minneapolis Center
07:53PM 44.3433 -88.1358 343° North 239 275 2,700 -900 Descending Minneapolis Center